Hassler — WTEK — position and weather

sailwx.info

Track history (hours):
 
Tides and Currents Weather Stations Pressure Air Temp Water Temp Dewpoint Dewpoint Depression Visibility Wind Speed Wind Dir Waves Ship Positions

Oceanographic research ship Hassler (USA)

Last reported at 2019-Jan-14 19:07 UTC. Time now 2019-Feb-23 16:41 UTC.
Position N 40°42' W 073°58'.
Warning: this ship's position is 39 days out of date.

Length 37 m.

MMSI: 369970091.

Date/timePositionNaut miles runAvg speedWind from/ knotsBaromVisibWave heightAir tempDewpointWater temp
2019-Jan-14 19:07N 40°42' W 073°58'0 0.0
2019-Jan-14 18:58N 40°42' W 073°58'0 0.1
2019-Jan-14 18:28N 40°42' W 073°58'0 0.4
2019-Jan-14 17:58N 40°42' W 073°58'  
2019-Jan-09 21:10N 40°42' W 073°58'0 0.0
2019-Jan-09 21:01N 40°42' W 073°58'0 0.0
2019-Jan-09 20:31N 40°42' W 073°58'0 0.0
2019-Jan-09 20:01N 40°42' W 073°58'0 0.0
2019-Jan-09 19:31N 40°42' W 073°58'0 0.0
2019-Jan-09 19:01N 40°42' W 073°58'0 0.0
2019-Jan-09 18:31N 40°42' W 073°58'0 0.0
2019-Jan-09 18:01N 40°42' W 073°58'0 0.0
2019-Jan-09 17:31N 40°42' W 073°58'0 0.0
2019-Jan-09 17:01N 40°42' W 073°58'0 0.1
2019-Jan-09 16:31N 40°42' W 073°58'0 0.1
2019-Jan-09 15:58N 40°42' W 073°58'0 0.0
2019-Jan-09 15:31N 40°42' W 073°58'0 0.0
2019-Jan-09 15:01N 40°42' W 073°58'0 0.0
2019-Jan-09 14:31N 40°42' W 073°58'0 0.0
2019-Jan-09 14:01N 40°42' W 073°58'0 0.0
2019-Jan-09 13:31N 40°42' W 073°58'0 0.0
2019-Jan-09 13:01N 40°42' W 073°58'0 0.0
2019-Jan-09 12:31N 40°42' W 073°58'0 0.0
2019-Jan-09 12:01N 40°42' W 073°58'0 0.0
2019-Jan-09 11:28N 40°42' W 073°58'0 0.0
2019-Jan-09 11:01N 40°42' W 073°58'0 0.0
2019-Jan-09 10:31N 40°42' W 073°58'0 0.0
2019-Jan-09 10:00N 40°42' W 073°58'0 0.0
2019-Jan-09 09:30N 40°42' W 073°58'0 0.0
2019-Jan-09 09:01N 40°42' W 073°58'0 0.0
2019-Jan-09 08:31N 40°42' W 073°58'0 0.0
2019-Jan-09 08:01N 40°42' W 073°58'0 0.0
2019-Jan-09 07:31N 40°42' W 073°58'0 0.0
2019-Jan-09 07:00N 40°42' W 073°58'0 0.1
2019-Jan-09 06:30N 40°42' W 073°58'0 0.1
2019-Jan-09 06:00N 40°42' W 073°58'0 0.0
2019-Jan-09 05:30N 40°42' W 073°58'0 0.0
2019-Jan-09 05:00N 40°42' W 073°58'0 0.0
2019-Jan-09 04:31N 40°42' W 073°58'0 0.0
2019-Jan-09 04:00N 40°42' W 073°58'0 0.0
2019-Jan-09 03:30N 40°42' W 073°58'0 0.0
2019-Jan-09 03:00N 40°42' W 073°58'0 0.0
2019-Jan-09 02:30N 40°42' W 073°58'0 0.0
2019-Jan-09 02:00N 40°42' W 073°58'0 0.0
2019-Jan-09 01:30N 40°42' W 073°58'0 0.0
2019-Jan-09 01:00N 40°42' W 073°58'0 0.0
2019-Jan-09 00:30N 40°42' W 073°58'0 0.0
2019-Jan-09 00:01N 40°42' W 073°58'0 0.0
2019-Jan-08 23:30N 40°42' W 073°58'0 0.0
2019-Jan-08 23:00N 40°42' W 073°58'0 0.0
2019-Jan-08 22:30N 40°42' W 073°58'0 0.0
2019-Jan-08 22:00N 40°42' W 073°58'1 1.8
2019-Jan-08 21:30N 40°42' W 073°59'4 8.7
2019-Jan-08 21:00N 40°39' W 074°03'5 9.5
2019-Jan-08 20:30N 40°34' W 074°02'4 8.6
2019-Jan-08 20:00N 40°31' W 073°59'4 8.9
2019-Jan-08 19:30N 40°29' W 073°54'5 9.8
2019-Jan-08 19:00N 40°27' W 073°47'810.5
2019-Jan-08 18:15N 40°28' W 073°37'174 9.5
2019-Jan-07 23:52N 42°11' W 070°31'411.3
2019-Jan-07 23:30N 42°15' W 070°31'511.0
2019-Jan-07 23:00N 42°21' W 070°32'611.2
2019-Jan-07 22:30N 42°26' W 070°32'611.6
2019-Jan-07 22:00N 42°32' W 070°32'611.8
2019-Jan-07 21:30N 42°38' W 070°32'611.7
2019-Jan-07 21:00N 42°44' W 070°34'611.5
2019-Jan-07 20:30N 42°49' W 070°36'611.7
2019-Jan-07 20:00N 42°55' W 070°38'  
Track history (hours):
 
Tides and Currents Weather Stations Pressure Air Temp Water Temp Dewpoint Dewpoint Depression Visibility Wind Speed Wind Dir Waves Ship Positions

Oceanographic research ship Hassler (USA)

Last reported at 2019-Jan-14 19:07 UTC. Time now 2019-Feb-23 16:41 UTC.
Position N 40°42' W 073°58'.
Warning: this ship's position is 39 days out of date.

Length 37 m.

MMSI: 369970091.

Date/timePositionNaut miles runAvg speedWind from/ knotsBaromVisibWave heightAir tempDewpointWater temp
2019-Jan-14 19:07N 40°42' W 073°58'0 0.0
2019-Jan-14 18:58N 40°42' W 073°58'0 0.1
2019-Jan-14 18:28N 40°42' W 073°58'0 0.4
2019-Jan-14 17:58N 40°42' W 073°58'  
2019-Jan-09 21:10N 40°42' W 073°58'0 0.0
2019-Jan-09 21:01N 40°42' W 073°58'0 0.0
2019-Jan-09 20:31N 40°42' W 073°58'0 0.0
2019-Jan-09 20:01N 40°42' W 073°58'0 0.0
2019-Jan-09 19:31N 40°42' W 073°58'0 0.0
2019-Jan-09 19:01N 40°42' W 073°58'0 0.0
2019-Jan-09 18:31N 40°42' W 073°58'0 0.0
2019-Jan-09 18:01N 40°42' W 073°58'0 0.0
2019-Jan-09 17:31N 40°42' W 073°58'0 0.0
2019-Jan-09 17:01N 40°42' W 073°58'0 0.1
2019-Jan-09 16:31N 40°42' W 073°58'0 0.1
2019-Jan-09 15:58N 40°42' W 073°58'0 0.0
2019-Jan-09 15:31N 40°42' W 073°58'0 0.0
2019-Jan-09 15:01N 40°42' W 073°58'0 0.0
2019-Jan-09 14:31N 40°42' W 073°58'0 0.0
2019-Jan-09 14:01N 40°42' W 073°58'0 0.0
2019-Jan-09 13:31N 40°42' W 073°58'0 0.0
2019-Jan-09 13:01N 40°42' W 073°58'0 0.0
2019-Jan-09 12:31N 40°42' W 073°58'0 0.0
2019-Jan-09 12:01N 40°42' W 073°58'0 0.0
2019-Jan-09 11:28N 40°42' W 073°58'0 0.0
2019-Jan-09 11:01N 40°42' W 073°58'0 0.0
2019-Jan-09 10:31N 40°42' W 073°58'0 0.0
2019-Jan-09 10:00N 40°42' W 073°58'0 0.0
2019-Jan-09 09:30N 40°42' W 073°58'0 0.0
2019-Jan-09 09:01N 40°42' W 073°58'0 0.0
2019-Jan-09 08:31N 40°42' W 073°58'0 0.0
2019-Jan-09 08:01N 40°42' W 073°58'0 0.0
2019-Jan-09 07:31N 40°42' W 073°58'0 0.0
2019-Jan-09 07:00N 40°42' W 073°58'0 0.1
2019-Jan-09 06:30N 40°42' W 073°58'0 0.1
2019-Jan-09 06:00N 40°42' W 073°58'0 0.0
2019-Jan-09 05:30N 40°42' W 073°58'0 0.0
2019-Jan-09 05:00N 40°42' W 073°58'0 0.0
2019-Jan-09 04:31N 40°42' W 073°58'0 0.0
2019-Jan-09 04:00N 40°42' W 073°58'0 0.0
2019-Jan-09 03:30N 40°42' W 073°58'0 0.0
2019-Jan-09 03:00N 40°42' W 073°58'0 0.0
2019-Jan-09 02:30N 40°42' W 073°58'0 0.0
2019-Jan-09 02:00N 40°42' W 073°58'0 0.0
2019-Jan-09 01:30N 40°42' W 073°58'0 0.0
2019-Jan-09 01:00N 40°42' W 073°58'0 0.0
2019-Jan-09 00:30N 40°42' W 073°58'0 0.0
2019-Jan-09 00:01N 40°42' W 073°58'0 0.0
2019-Jan-08 23:30N 40°42' W 073°58'0 0.0
2019-Jan-08 23:00N 40°42' W 073°58'0 0.0
2019-Jan-08 22:30N 40°42' W 073°58'0 0.0
2019-Jan-08 22:00N 40°42' W 073°58'1 1.8
2019-Jan-08 21:30N 40°42' W 073°59'4 8.7
2019-Jan-08 21:00N 40°39' W 074°03'5 9.5
2019-Jan-08 20:30N 40°34' W 074°02'4 8.6
2019-Jan-08 20:00N 40°31' W 073°59'4 8.9
2019-Jan-08 19:30N 40°29' W 073°54'5 9.8
2019-Jan-08 19:00N 40°27' W 073°47'810.5
2019-Jan-08 18:15N 40°28' W 073°37'174 9.5
2019-Jan-07 23:52N 42°11' W 070°31'411.3
2019-Jan-07 23:30N 42°15' W 070°31'511.0
2019-Jan-07 23:00N 42°21' W 070°32'611.2
2019-Jan-07 22:30N 42°26' W 070°32'611.6
2019-Jan-07 22:00N 42°32' W 070°32'611.8
2019-Jan-07 21:30N 42°38' W 070°32'611.7
2019-Jan-07 21:00N 42°44' W 070°34'611.5
2019-Jan-07 20:30N 42°49' W 070°36'611.7
2019-Jan-07 20:00N 42°55' W 070°38'  

Dump ship's entire track history